Portada
METAR-TAF:

METAR-TAF

Aeroports :

Barrancabermeja, Colòmbia

latitud: 07-01N, longitud: 073-48W, altitud: 126 m

Observació

L'informe es va fer fa 46 minuts, a les 22:00 UTC
Vent 3 kt del Oest/Sud-Oest
Temperatura 35°C
Humitat 47%
Pressió 1004 hPa
Visibilitat 10 km o més
Escasses núvols a una alçada de 2500 ft

METAR: SKEJ 202200Z 24003KT 9999 FEW025 35/22 A2966

Hora: 17:46 (22:46 UTC)


TAF: manca

Observacions i pronòstics meteorològics de més de 4000 aeroports (METAR i TAF).

Les estacions disponibles són els punts grocs i vermells al mapa.

Posi el ratolí al punt desitjat per veure el nom de l'estació.

Feu clic per veure les observacions i els pronòstics meteorològics.

Per canviar el mapa: feu clic els botons verds amb una creu de color negre per apropar; al botó verd amb un guió per allunyar la imatge; o en les fletxes verdes per a mapes adjacents.


METAR-TAF: